Time;durP1;ratioP1;P1;durP2;ratioP2;P2;SDS_P1;SDS_P2;PMS_P1;PMS_P2;Temp;Humidity;BMP_temperature;BMP_pressure;BME280_temperature;BME280_humidity;BME280_pressure;Samples;Min_cycle;Max_cycle;Signal;HPM_P1;HPM_P2
2022/03/28 00:01:33;;;;;;;12.40;6.03;;;12.80;87.60;;;;;;5078027;28;20016;-79
2022/03/28 00:03:59;;;;;;;10.57;5.78;;;12.80;88.00;;;;;;5096148;28;20035;-79
2022/03/28 00:06:25;;;;;;;13.38;6.00;;;12.80;87.10;;;;;;5077894;28;20028;-79
2022/03/28 00:08:51;;;;;;;12.85;6.03;;;12.70;86.90;;;;;;5077795;28;20106;-80
2022/03/28 00:11:17;;;;;;;10.85;6.38;;;12.70;87.00;;;;;;5077703;28;20024;-79
2022/03/28 00:13:44;;;;;;;10.25;5.65;;;12.70;87.10;;;;;;5077769;28;20391;-79
2022/03/28 00:16:10;;;;;;;10.32;6.20;;;12.70;87.10;;;;;;5077544;28;20028;-80
2022/03/28 00:18:36;;;;;;;12.43;6.32;;;12.70;87.10;;;;;;5077593;28;20020;-79
2022/03/28 00:21:02;;;;;;;13.35;5.70;;;12.70;87.50;;;;;;5095631;28;20036;-79
2022/03/28 00:23:30;;;;;;;9.40;5.82;;;12.70;88.00;;;;;;5095799;28;20529;-79
2022/03/28 00:25:56;;;;;;;12.82;6.32;;;12.60;87.90;;;;;;5095711;28;20020;-79
2022/03/28 00:28:23;;;;;;;12.00;5.80;;;12.60;87.10;;;;;;5077646;28;20094;-79
2022/03/28 00:30:50;;;;;;;9.38;6.20;;;12.60;87.10;;;;;;5077484;28;20424;-79
2022/03/28 00:33:15;;;;;;;12.43;6.30;;;12.60;87.20;;;;;;5077945;28;20380;-79
2022/03/28 00:35:41;;;;;;;12.57;6.35;;;12.60;87.30;;;;;;5095486;28;20085;-80
2022/03/28 00:38:08;;;;;;;11.55;6.13;;;12.70;87.40;;;;;;5077423;28;20028;-79
2022/03/28 00:40:34;;;;;;;11.00;6.03;;;12.60;87.40;;;;;;5095741;28;20032;-80
2022/03/28 00:43:03;;;;;;;9.80;5.70;;;12.60;87.40;;;;;;5077334;28;20107;-79
2022/03/28 00:45:30;;;;;;;15.23;5.95;;;12.50;87.30;;;;;;5095287;28;20028;-80
2022/03/28 00:47:55;;;;;;;11.02;6.00;;;12.50;87.30;;;;;;5077126;28;20028;-79
2022/03/28 00:50:21;;;;;;;13.88;6.03;;;12.50;88.10;;;;;;5095367;28;20092;-80
2022/03/28 00:52:48;;;;;;;11.73;5.63;;;12.50;87.40;;;;;;5095186;28;20535;-79
2022/03/28 00:55:13;;;;;;;13.13;5.93;;;12.50;88.10;;;;;;5076904;28;20035;-79
2022/03/28 00:57:40;;;;;;;15.88;5.88;;;12.50;88.70;;;;;;5095465;28;20379;-79
2022/03/28 01:00:09;;;;;;;14.50;6.10;;;12.50;88.40;;;;;;5076873;28;20114;-79
2022/03/28 01:02:35;;;;;;;9.70;5.90;;;12.10;95.80;;;;;;5076933;28;20024;-80
2022/03/28 01:05:01;;;;;;;13.45;6.53;;;12.50;87.50;;;;;;5076754;28;20028;-79
2022/03/28 01:07:28;;;;;;;12.98;5.93;;;12.40;87.40;;;;;;5076592;28;20082;-79
2022/03/28 01:10:00;;;;;;;9.10;6.00;;;12.40;87.60;;;;;;5076681;28;20024;-79
2022/03/28 01:12:29;;;;;;;14.77;6.25;;;12.40;91.00;;;;;;5076627;28;20034;-79
2022/03/28 01:14:55;;;;;;;11.05;6.13;;;12.50;96.00;;;;;;5076587;28;20039;-79
2022/03/28 01:20:06;;;;;;;14.85;6.60;;;12.50;92.70;;;;;;5094957;28;20076;-79
2022/03/28 01:22:32;;;;;;;11.73;5.50;;;12.50;95.60;;;;;;5076270;28;20040;-80
2022/03/28 01:25:02;;;;;;;10.95;5.78;;;12.50;95.00;;;;;;5094551;28;20388;-79
2022/03/28 01:27:28;;;;;;;10.55;5.57;;;12.40;94.70;;;;;;5094522;28;20111;-79
2022/03/28 01:29:54;;;;;;;10.48;5.70;;;12.40;94.80;;;;;;5075878;28;20524;-79
2022/03/28 01:32:20;;;;;;;11.50;6.30;;;12.40;95.00;;;;;;5076242;28;20060;-79
2022/03/28 01:34:45;;;;;;;9.07;5.72;;;12.40;92.60;;;;;;5076241;28;20024;-80
2022/03/28 01:37:11;;;;;;;12.98;6.03;;;12.40;92.30;;;;;;5076232;28;20020;-79
2022/03/28 01:39:37;;;;;;;13.43;6.57;;;12.30;92.60;;;;;;5076172;28;20022;-79
2022/03/28 01:42:03;;;;;;;16.92;6.32;;;12.30;93.10;;;;;;5076017;28;20059;-79
2022/03/28 01:44:29;;;;;;;12.45;5.93;;;12.30;93.10;;;;;;5094154;28;20036;-79
2022/03/28 01:46:55;;;;;;;12.57;6.43;;;12.30;92.70;;;;;;5075995;28;20076;-79
2022/03/28 01:49:21;;;;;;;14.13;6.13;;;12.30;92.50;;;;;;5094460;28;20494;-79
2022/03/28 01:51:48;;;;;;;12.65;6.10;;;12.30;92.40;;;;;;5075863;28;20482;-80
2022/03/28 01:54:15;;;;;;;11.90;5.97;;;12.30;92.50;;;;;;5075784;28;20032;-79
2022/03/28 01:56:41;;;;;;;13.48;6.35;;;12.30;92.30;;;;;;5075859;28;20364;-79
2022/03/28 01:59:09;;;;;;;10.82;6.13;;;12.30;93.70;;;;;;5075799;28;20399;-80
2022/03/28 02:01:35;;;;;;;10.60;5.90;;;12.30;93.70;;;;;;5093928;28;20063;-79
2022/03/28 02:04:01;;;;;;;11.88;6.53;;;12.20;94.40;;;;;;5075647;28;20035;-79
2022/03/28 02:06:28;;;;;;;10.75;6.25;;;12.30;94.40;;;;;;5093905;28;20073;-79
2022/03/28 02:08:54;;;;;;;11.30;5.55;;;12.20;93.20;;;;;;5075645;28;20081;-79
2022/03/28 02:11:20;;;;;;;15.40;6.45;;;12.20;93.40;;;;;;5075627;28;20024;-79
2022/03/28 02:13:46;;;;;;;12.63;5.68;;;12.20;93.20;;;;;;5075550;28;20077;-79
2022/03/28 02:16:11;;;;;;;11.55;5.80;;;12.20;93.60;;;;;;5093635;28;20031;-80
2022/03/28 02:18:40;;;;;;;12.07;6.15;;;12.20;93.60;;;;;;5093594;28;20024;-80
2022/03/28 02:21:06;;;;;;;11.93;6.50;;;12.20;93.80;;;;;;5075328;28;20139;-80
2022/03/28 02:23:32;;;;;;;10.52;5.72;;;12.20;94.20;;;;;;5075372;28;20467;-79
2022/03/28 02:25:58;;;;;;;13.60;6.10;;;12.20;93.60;;;;;;5075421;28;20081;-79
2022/03/28 02:28:24;;;;;;;9.35;5.30;;;12.10;93.60;;;;;;5075350;28;20020;-79
2022/03/28 02:30:49;;;;;;;13.90;5.93;;;12.10;93.90;;;;;;5075277;28;20466;-79
2022/03/28 02:33:15;;;;;;;11.05;5.88;;;12.10;96.40;;;;;;5093348;28;20070;-79
2022/03/28 02:35:41;;;;;;;10.20;5.47;;;12.10;99.90;;;;;;5093263;28;20020;-79
2022/03/28 02:38:08;;;;;;;16.63;5.80;;;12.10;99.30;;;;;;5093316;28;20020;-79
2022/03/28 02:40:35;;;;;;;13.48;6.05;;;12.10;99.00;;;;;;5092439;28;20021;-79
2022/03/28 02:43:02;;;;;;;14.95;6.15;;;12.10;98.90;;;;;;5075174;28;20388;-79
2022/03/28 02:45:30;;;;;;;12.27;6.30;;;12.00;98.80;;;;;;5093278;28;20048;-80
2022/03/28 02:47:56;;;;;;;14.88;6.53;;;12.10;98.70;;;;;;5075077;28;20027;-79
2022/03/28 02:50:22;;;;;;;11.02;6.45;;;12.00;98.70;;;;;;5075154;28;20391;-79
2022/03/28 02:52:48;;;;;;;12.18;6.43;;;12.00;98.60;;;;;;5075034;28;20028;-79
2022/03/28 02:55:15;;;;;;;14.50;6.50;;;12.00;98.60;;;;;;5093028;28;20064;-80
2022/03/28 02:57:41;;;;;;;15.52;6.40;;;12.00;98.80;;;;;;5092996;28;20023;-79
2022/03/28 03:00:08;;;;;;;16.75;6.63;;;12.00;99.90;;;;;;5074743;28;20020;-79
2022/03/28 03:02:35;;;;;;;12.68;6.38;;;12.10;99.90;;;;;;5074766;28;20054;-79
2022/03/28 03:05:01;;;;;;;13.23;6.95;;;12.00;99.90;;;;;;5092951;28;20364;-79
2022/03/28 03:07:26;;;;;;;11.50;6.03;;;12.00;99.90;;;;;;5074760;28;20028;-79
2022/03/28 03:09:52;;;;;;;9.63;6.00;;;11.90;99.90;;;;;;5092855;28;20452;-79
2022/03/28 03:12:19;;;;;;;9.07;5.82;;;11.90;99.90;;;;;;5092970;28;20368;-79
2022/03/28 03:14:45;;;;;;;13.73;6.72;;;11.70;99.90;;;;;;5092795;28;20472;-79
2022/03/28 03:17:10;;;;;;;11.57;6.13;;;11.90;99.90;;;;;;5092884;28;20024;-80
2022/03/28 03:19:41;;;;;;;10.90;5.85;;;11.90;99.90;;;;;;5074592;28;20466;-79
2022/03/28 03:22:08;;;;;;;11.82;6.38;;;11.80;99.90;;;;;;5092707;28;20048;-80
2022/03/28 03:24:34;;;;;;;10.63;6.57;;;11.90;99.90;;;;;;5092780;28;20024;-79
2022/03/28 03:27:00;;;;;;;12.65;6.32;;;11.90;99.90;;;;;;5092750;28;20031;-79
2022/03/28 03:29:26;;;;;;;12.38;6.22;;;11.70;88.60;;;;;;5092735;28;20099;-79
2022/03/28 03:31:55;;;;;;;13.70;6.15;;;11.70;88.60;;;;;;5092981;28;20039;-79
2022/03/28 03:34:21;;;;;;;11.68;6.00;;;11.70;88.60;;;;;;5092580;28;20502;-79
2022/03/28 03:36:46;;;;;;;16.42;6.45;;;11.70;88.70;;;;;;5074464;28;20056;-79
2022/03/28 03:39:12;;;;;;;11.65;5.75;;;11.70;88.60;;;;;;5092812;28;20063;-79
2022/03/28 03:41:38;;;;;;;13.88;6.55;;;11.70;88.70;;;;;;5092566;28;20494;-79
2022/03/28 03:44:06;;;;;;;10.90;6.50;;;11.70;88.70;;;;;;5092577;28;20020;-79
2022/03/28 03:46:32;;;;;;;8.88;5.63;;;11.60;88.70;;;;;;5074467;28;20544;-80
2022/03/28 03:48:58;;;;;;;11.30;6.35;;;11.60;88.70;;;;;;5074442;28;20494;-79
2022/03/28 03:51:24;;;;;;;12.38;6.55;;;11.60;88.70;;;;;;5075177;28;20017;-80
2022/03/28 03:53:49;;;;;;;11.80;6.18;;;11.60;88.80;;;;;;5078286;28;20050;-79
2022/03/28 03:56:15;;;;;;;10.57;5.93;;;11.60;88.80;;;;;;5078146;28;20032;-79
2022/03/28 03:58:41;;;;;;;12.57;6.90;;;11.60;88.90;;;;;;5096273;28;20047;-79
2022/03/28 04:01:08;;;;;;;11.63;6.05;;;11.60;88.90;;;;;;5096562;28;20032;-79
2022/03/28 04:03:35;;;;;;;10.77;5.85;;;11.50;88.90;;;;;;5077925;28;20032;-79
2022/03/28 04:06:01;;;;;;;10.02;5.78;;;11.50;99.00;;;;;;5096072;28;20020;-80
2022/03/28 04:08:27;;;;;;;9.93;6.07;;;11.60;94.80;;;;;;5077855;28;20028;-80
2022/03/28 04:10:54;;;;;;;15.30;6.35;;;11.60;97.00;;;;;;5077813;28;20051;-79
2022/03/28 04:13:20;;;;;;;15.63;6.47;;;11.60;97.50;;;;;;5095929;28;20020;-79
2022/03/28 04:15:46;;;;;;;12.80;6.30;;;11.60;96.10;;;;;;5077672;28;20604;-79
2022/03/28 04:18:11;;;;;;;12.45;6.18;;;11.60;95.90;;;;;;5095834;28;20024;-79
2022/03/28 04:20:37;;;;;;;10.40;5.82;;;11.60;95.90;;;;;;5095637;28;20100;-79
2022/03/28 04:23:03;;;;;;;14.57;6.50;;;11.60;96.60;;;;;;5096192;28;20031;-79
2022/03/28 04:25:28;;;;;;;12.57;6.65;;;11.50;95.00;;;;;;5095948;28;20028;-79
2022/03/28 04:27:54;;;;;;;14.20;6.53;;;11.60;92.80;;;;;;5077533;28;20028;-79
2022/03/28 04:30:21;;;;;;;12.65;6.05;;;11.70;92.50;;;;;;5095711;28;20110;-79
2022/03/28 04:32:46;;;;;;;16.58;6.40;;;11.50;93.10;;;;;;5095691;28;20476;-79
2022/03/28 04:35:12;;;;;;;13.90;6.22;;;11.60;96.60;;;;;;5077477;28;20030;-79
2022/03/28 04:37:39;;;;;;;16.08;6.40;;;11.50;96.50;;;;;;5095601;28;20043;-79
2022/03/28 04:40:07;;;;;;;13.18;6.00;;;11.50;96.70;;;;;;5077271;28;20021;-80
2022/03/28 04:42:34;;;;;;;14.98;6.90;;;11.50;96.70;;;;;;5077386;28;20027;-79
2022/03/28 04:44:59;;;;;;;8.45;6.10;;;11.50;91.40;;;;;;5077341;28;20096;-79
2022/03/28 04:47:25;;;;;;;14.35;6.30;;;11.50;93.40;;;;;;5077338;28;20480;-79
2022/03/28 04:49:51;;;;;;;15.95;6.63;;;;;;;;;;5095349;28;20035;-79
2022/03/28 04:52:17;;;;;;;15.52;6.18;;;11.40;99.90;;;;;;5077211;28;20028;-80
2022/03/28 04:54:42;;;;;;;12.00;6.15;;;11.50;89.80;;;;;;5095144;28;20024;-79
2022/03/28 04:57:08;;;;;;;13.15;6.30;;;11.30;89.10;;;;;;5095447;28;20023;-79
2022/03/28 04:59:33;;;;;;;15.88;6.68;;;11.30;89.20;;;;;;5077092;28;20024;-79
2022/03/28 05:01:59;;;;;;;12.23;6.82;;;11.30;89.20;;;;;;5095009;28;20067;-79
2022/03/28 05:04:26;;;;;;;12.90;6.78;;;11.30;89.20;;;;;;5094013;28;20101;-79
2022/03/28 05:06:52;;;;;;;12.00;6.97;;;11.30;89.30;;;;;;5095226;28;20029;-79
2022/03/28 05:09:18;;;;;;;14.73;6.90;;;11.30;89.20;;;;;;5076732;28;20027;-79
2022/03/28 05:11:44;;;;;;;13.20;6.53;;;11.20;89.20;;;;;;5076859;28;20111;-79
2022/03/28 05:14:11;;;;;;;12.43;6.55;;;11.20;89.20;;;;;;5076568;28;20572;-79
2022/03/28 05:16:36;;;;;;;11.07;6.70;;;11.20;89.30;;;;;;5076686;28;20030;-79
2022/03/28 05:19:04;;;;;;;16.48;8.18;;;11.30;89.40;;;;;;5094713;28;20024;-79
2022/03/28 05:21:30;;;;;;;17.77;8.07;;;11.20;89.30;;;;;;5094516;28;20040;-79
2022/03/28 05:23:56;;;;;;;14.18;8.02;;;11.20;89.30;;;;;;5095197;28;20443;-79
2022/03/28 05:26:21;;;;;;;12.73;7.18;;;11.20;89.40;;;;;;5076418;28;20028;-80
2022/03/28 05:28:47;;;;;;;13.82;7.50;;;11.20;89.30;;;;;;5076316;28;20024;-79
2022/03/28 05:31:13;;;;;;;16.73;7.82;;;11.20;89.30;;;;;;5076234;28;20103;-79
2022/03/28 05:33:39;;;;;;;14.55;7.50;;;11.20;89.40;;;;;;5076264;28;20032;-80
2022/03/28 05:36:05;;;;;;;14.70;7.60;;;11.10;89.90;;;;;;5076126;28;20479;-79
2022/03/28 05:38:32;;;;;;;17.73;7.65;;;11.10;89.30;;;;;;5076238;28;20032;-79
2022/03/28 05:40:58;;;;;;;14.82;7.72;;;11.20;89.40;;;;;;5076092;28;20500;-79
2022/03/28 05:43:24;;;;;;;13.02;7.05;;;11.10;89.40;;;;;;5076070;28;20017;-79
2022/03/28 05:45:52;;;;;;;14.88;7.60;;;11.20;89.40;;;;;;5094216;28;20032;-79
2022/03/28 05:48:19;;;;;;;11.88;7.53;;;11.10;89.40;;;;;;5076012;28;20363;-79
2022/03/28 05:50:45;;;;;;;14.38;7.40;;;11.10;89.40;;;;;;5094185;28;20435;-79
2022/03/28 05:53:13;;;;;;;13.60;7.18;;;11.20;89.50;;;;;;5076057;28;20387;-79
2022/03/28 05:55:40;;;;;;;14.63;7.00;;;11.10;89.40;;;;;;5094048;28;20043;-80
2022/03/28 05:58:07;;;;;;;14.02;7.78;;;11.10;89.40;;;;;;5076137;28;20048;-80
2022/03/28 06:00:33;;;;;;;15.15;6.90;;;11.20;89.50;;;;;;5093877;28;20379;-80
2022/03/28 06:02:58;;;;;;;11.95;7.07;;;11.10;89.40;;;;;;5075760;28;20027;-80
2022/03/28 06:05:24;;;;;;;19.23;8.48;;;11.20;89.60;;;;;;5093822;28;20099;-80
2022/03/28 06:07:50;;;;;;;18.00;7.82;;;11.20;89.60;;;;;;5094071;28;20024;-80
2022/03/28 06:10:16;;;;;;;16.92;7.63;;;11.20;89.80;;;;;;5075652;28;20482;-80
2022/03/28 06:12:43;;;;;;;16.35;7.80;;;11.20;89.70;;;;;;5075665;28;20024;-80
2022/03/28 06:15:09;;;;;;;13.65;7.95;;;11.20;89.70;;;;;;5075237;28;20020;-79
2022/03/28 06:17:35;;;;;;;12.68;7.05;;;11.20;89.80;;;;;;5075448;28;20526;-80
2022/03/28 06:20:04;;;;;;;13.23;7.60;;;11.20;90.00;;;;;;5093600;28;20020;-80
2022/03/28 06:22:30;;;;;;;14.88;6.88;;;11.20;89.90;;;;;;5075206;28;20399;-80
2022/03/28 06:24:56;;;;;;;15.80;7.10;;;11.30;90.00;;;;;;5093819;28;20020;-80
2022/03/28 06:27:24;;;;;;;15.95;7.20;;;11.30;90.00;;;;;;5075279;28;20024;-80
2022/03/28 06:29:52;;;;;;;15.15;6.93;;;11.30;90.00;;;;;;5075270;28;20046;-80
2022/03/28 06:32:18;;;;;;;15.02;6.80;;;11.30;90.00;;;;;;5075325;28;20115;-80
2022/03/28 06:34:44;;;;;;;14.98;7.32;;;11.40;90.00;;;;;;5075121;28;20028;-80
2022/03/28 06:37:10;;;;;;;13.82;7.10;;;11.40;90.00;;;;;;5075231;28;20026;-80
2022/03/28 06:39:36;;;;;;;13.43;7.43;;;11.40;89.80;;;;;;5075191;28;20390;-80
2022/03/28 06:42:03;;;;;;;12.88;6.60;;;11.50;89.70;;;;;;5093335;28;20026;-80
2022/03/28 06:44:30;;;;;;;13.90;6.72;;;11.60;89.50;;;;;;5075015;28;20032;-80
2022/03/28 06:46:56;;;;;;;13.27;6.85;;;11.60;89.30;;;;;;5075087;28;20028;-80
2022/03/28 06:49:22;;;;;;;17.50;7.53;;;11.60;89.20;;;;;;5093179;28;20030;-80
2022/03/28 06:51:48;;;;;;;12.57;7.22;;;11.60;89.10;;;;;;5075120;28;20027;-80
2022/03/28 06:54:15;;;;;;;11.40;7.28;;;11.70;89.00;;;;;;5093119;28;20024;-80
2022/03/28 06:56:41;;;;;;;12.75;6.95;;;11.70;89.00;;;;;;5093117;28;20531;-80
2022/03/28 06:59:08;;;;;;;13.43;7.57;;;11.70;89.80;;;;;;5093064;28;20016;-80
2022/03/28 07:01:34;;;;;;;11.90;7.45;;;11.80;89.00;;;;;;5093065;28;20035;-80
2022/03/28 07:04:00;;;;;;;13.73;7.00;;;11.90;89.10;;;;;;5093040;28;20020;-80
2022/03/28 07:06:26;;;;;;;10.85;6.95;;;11.90;88.90;;;;;;5092989;28;20359;-80
2022/03/28 07:08:53;;;;;;;15.48;7.55;;;11.90;88.90;;;;;;5092978;28;20074;-80
2022/03/28 07:11:19;;;;;;;14.43;7.47;;;11.90;89.00;;;;;;5074802;28;20035;-80
2022/03/28 07:13:44;;;;;;;20.40;7.05;;;12.00;88.90;;;;;;5074856;28;20464;-80
2022/03/28 07:16:10;;;;;;;14.93;7.07;;;12.00;88.80;;;;;;5074819;28;20028;-80
2022/03/28 07:18:36;;;;;;;12.85;6.97;;;12.10;88.70;;;;;;5093100;28;20111;-80
2022/03/28 07:21:02;;;;;;;12.82;6.25;;;12.10;88.70;;;;;;5092753;28;20048;-80
2022/03/28 07:23:28;;;;;;;15.60;6.70;;;12.20;88.60;;;;;;5074677;28;20020;-80
2022/03/28 07:25:56;;;;;;;11.40;6.57;;;12.20;88.40;;;;;;5093170;28;20383;-80
2022/03/28 07:28:22;;;;;;;11.55;6.60;;;12.20;88.40;;;;;;5096836;28;20023;-80
2022/03/28 07:30:48;;;;;;;13.25;6.43;;;12.30;88.30;;;;;;5078632;28;20483;-80
2022/03/28 07:33:14;;;;;;;9.95;6.18;;;12.30;88.30;;;;;;5078586;28;20035;-81
2022/03/28 07:35:40;;;;;;;13.20;6.18;;;12.30;88.20;;;;;;5078393;28;20032;-81
2022/03/28 07:38:08;;;;;;;12.45;6.60;;;12.40;88.10;;;;;;5078519;28;20020;-81
2022/03/28 07:40:38;;;;;;;14.13;6.18;;;12.50;88.20;;;;;;5096596;28;20013;-81
2022/03/28 07:43:05;;;;;;;11.90;6.72;;;12.50;88.00;;;;;;5078382;28;20107;-80
2022/03/28 07:45:30;;;;;;;12.00;6.10;;;12.50;87.90;;;;;;5078593;28;20027;-80
2022/03/28 07:47:56;;;;;;;12.80;6.60;;;12.60;88.00;;;;;;5078276;28;20479;-80
2022/03/28 07:50:22;;;;;;;10.75;6.00;;;12.60;88.00;;;;;;5078263;28;20359;-80
2022/03/28 07:52:50;;;;;;;14.82;6.95;;;12.70;88.10;;;;;;5078332;28;20119;-80
2022/03/28 07:55:17;;;;;;;10.38;6.43;;;12.70;88.00;;;;;;5078107;28;20506;-80
2022/03/28 07:57:43;;;;;;;12.80;6.53;;;12.80;88.10;;;;;;5078162;28;20505;-80
2022/03/28 08:00:12;;;;;;;9.57;6.25;;;12.80;88.30;;;;;;5078113;28;20016;-80
2022/03/28 08:02:38;;;;;;;11.52;6.28;;;12.80;88.30;;;;;;5078046;28;20020;-81
2022/03/28 08:05:05;;;;;;;15.10;5.95;;;12.90;88.50;;;;;;5096196;28;20031;-80
2022/03/28 08:07:31;;;;;;;11.18;6.18;;;12.90;88.20;;;;;;5077847;28;20050;-80
2022/03/28 08:09:57;;;;;;;11.00;6.25;;;13.00;88.20;;;;;;5077865;28;20024;-80
2022/03/28 08:12:23;;;;;;;14.80;7.93;;;13.00;88.20;;;;;;5096360;28;20332;-81
2022/03/28 08:14:50;;;;;;;14.68;7.05;;;13.00;88.50;;;;;;5096006;28;20039;-80
2022/03/28 08:17:18;;;;;;;11.20;5.75;;;13.10;88.50;;;;;;5096225;28;20141;-80
2022/03/28 08:19:43;;;;;;;10.05;6.20;;;13.10;88.20;;;;;;5077686;28;20020;-80
2022/03/28 08:22:09;;;;;;;10.32;6.05;;;13.20;88.10;;;;;;5077576;28;20056;-81
2022/03/28 08:24:35;;;;;;;11.43;6.10;;;13.20;88.00;;;;;;5095920;28;20103;-81
2022/03/28 08:27:00;;;;;;;16.90;6.25;;;13.20;87.90;;;;;;5096039;28;20024;-80
2022/03/28 08:29:26;;;;;;;15.77;6.25;;;13.30;87.90;;;;;;5095746;28;20028;-81
2022/03/28 08:31:52;;;;;;;13.82;6.22;;;13.30;87.80;;;;;;5095667;28;20107;-80
2022/03/28 08:34:19;;;;;;;11.93;6.60;;;13.40;87.80;;;;;;5077386;28;20048;-80
2022/03/28 08:36:45;;;;;;;13.88;5.70;;;13.40;87.90;;;;;;5077439;28;20027;-80
2022/03/28 08:39:11;;;;;;;13.38;7.07;;;13.40;87.60;;;;;;5076045;28;20111;-81
2022/03/28 08:41:37;;;;;;;13.93;6.95;;;13.40;87.50;;;;;;5095717;28;20016;-82
2022/03/28 08:44:03;;;;;;;20.92;7.03;;;13.50;87.60;;;;;;5095428;28;20475;-80
2022/03/28 08:46:29;;;;;;;13.77;6.25;;;13.50;87.50;;;;;;5077214;28;20115;-80
2022/03/28 08:48:59;;;;;;;12.30;6.75;;;13.60;87.40;;;;;;5077185;28;20024;-80
2022/03/28 08:51:27;;;;;;;17.10;7.35;;;13.60;87.40;;;;;;5095360;28;20028;-80
2022/03/28 08:53:54;;;;;;;12.90;7.35;;;13.60;87.30;;;;;;5095341;28;20096;-80
2022/03/28 08:56:20;;;;;;;14.55;8.30;;;13.60;87.30;;;;;;5077021;28;20122;-81
2022/03/28 08:58:46;;;;;;;14.57;7.78;;;13.70;87.30;;;;;;5095555;28;20039;-81
2022/03/28 09:01:12;;;;;;;14.20;7.40;;;13.70;87.20;;;;;;5077078;28;20024;-80
2022/03/28 09:03:44;;;;;;;14.65;8.20;;;13.70;87.20;;;;;;5095141;28;20024;-80
2022/03/28 09:06:39;;;;;;;13.70;8.13;;;13.70;87.00;;;;;;5076967;28;20039;-80
2022/03/28 09:09:16;;;;;;;12.55;7.13;;;13.80;87.00;;;;;;5095288;28;20028;-81
2022/03/28 09:11:43;;;;;;;20.02;8.18;;;13.90;87.10;;;;;;5077069;28;20544;-80
2022/03/28 09:14:22;;;;;;;15.15;7.80;;;13.90;87.40;;;;;;5076719;28;20028;-80
2022/03/28 09:17:08;;;;;;;12.68;7.00;;;13.90;87.30;;;;;;5076667;28;20066;-81
2022/03/28 09:19:55;;;;;;;19.63;8.93;;;13.90;87.10;;;;;;5076612;28;20169;-81
2022/03/28 09:22:29;;;;;;;11.80;7.28;;;14.00;87.00;;;;;;5076406;28;20044;-81
2022/03/28 09:24:59;;;;;;;16.90;8.00;;;14.00;86.90;;;;;;5094694;28;20498;-81
2022/03/28 09:27:27;;;;;;;18.25;8.85;;;14.00;87.10;;;;;;5094615;28;20028;-81
2022/03/28 09:30:02;;;;;;;15.65;8.13;;;14.10;87.20;;;;;;5094926;28;20467;-80
2022/03/28 09:32:30;;;;;;;17.75;8.00;;;14.10;87.80;;;;;;5076410;28;20020;-81
2022/03/28 09:35:19;;;;;;;15.18;8.70;;;14.10;87.00;;;;;;5094424;28;20031;-80
2022/03/28 09:38:01;;;;;;;14.48;9.00;;;14.20;86.90;;;;;;5094541;28;20488;-80
2022/03/28 09:40:29;;;;;;;13.18;8.25;;;14.20;86.80;;;;;;5077007;28;20451;-81
2022/03/28 09:42:56;;;;;;;16.33;8.73;;;14.30;87.00;;;;;;5076117;28;20016;-80
2022/03/28 09:45:24;;;;;;;18.55;9.05;;;14.30;86.70;;;;;;5076129;28;20024;-81
2022/03/28 09:48:01;;;;;;;13.88;7.78;;;14.30;86.60;;;;;;5094470;28;20028;-81
2022/03/28 09:50:46;;;;;;;22.67;9.50;;;14.40;94.30;;;;;;5094017;28;20031;-81
2022/03/28 09:53:15;;;;;;;;;;;14.50;94.10;;;;;;5094960;28;20020;-80
2022/03/28 09:55:57;;;;;;;19.98;9.02;;;14.50;94.30;;;;;;5094047;28;19908;-81
2022/03/28 09:58:42;;;;;;;22.67;9.45;;;14.60;92.60;;;;;;5075896;28;20020;-81
2022/03/28 10:01:35;;;;;;;21.33;8.75;;;14.60;89.90;;;;;;5094161;28;20020;-81
2022/03/28 10:04:06;;;;;;;15.95;9.05;;;14.60;93.80;;;;;;5094248;28;20024;-81
2022/03/28 10:06:33;;;;;;;21.25;9.15;;;14.60;95.10;;;;;;5075731;28;20030;-80
2022/03/28 10:08:59;;;;;;;14.85;8.82;;;;;;;;;;5093907;28;20536;-81
2022/03/28 10:11:26;;;;;;;22.80;9.10;;;14.60;84.90;;;;;;5093860;28;20028;-81
2022/03/28 10:13:52;;;;;;;16.08;8.77;;;14.50;85.20;;;;;;5075682;28;20409;-81
2022/03/28 10:16:18;;;;;;;18.50;9.18;;;14.50;85.10;;;;;;5075455;28;20076;-81
2022/03/28 10:18:45;;;;;;;14.90;9.23;;;14.60;84.90;;;;;;5075565;28;20023;-81
2022/03/28 10:21:20;;;;;;;16.70;9.15;;;14.60;84.60;;;;;;5075332;28;20051;-82
2022/03/28 10:23:55;;;;;;;16.52;9.57;;;14.70;84.60;;;;;;5093689;28;20016;-80
2022/03/28 10:26:24;;;;;;;;;;;14.70;84.50;;;;;;5075880;28;20024;-81
2022/03/28 10:29:11;;;;;;;15.52;9.13;;;14.70;84.30;;;;;;5075321;28;19904;-81
2022/03/28 10:31:55;;;;;;;15.10;9.73;;;14.70;83.90;;;;;;5075379;28;20030;-81
2022/03/28 10:34:39;;;;;;;15.40;9.27;;;14.80;83.60;;;;;;5093597;28;20024;-80
2022/03/28 10:37:30;;;;;;;16.35;8.48;;;14.80;83.50;;;;;;5075243;28;20065;-80
2022/03/28 10:40:23;;;;;;;17.75;8.95;;;14.80;83.60;;;;;;5093352;28;20016;-80
2022/03/28 10:42:52;;;;;;;17.85;9.68;;;14.90;83.20;;;;;;5075167;28;20078;-81
2022/03/28 10:45:20;;;;;;;16.17;8.52;;;14.90;82.90;;;;;;5075075;28;20027;-81
2022/03/28 10:47:50;;;;;;;15.82;8.73;;;15.00;85.10;;;;;;5093207;28;20521;-81
2022/03/28 10:50:24;;;;;;;19.30;8.80;;;15.10;86.60;;;;;;5075137;28;20028;-80
2022/03/28 10:53:14;;;;;;;19.27;9.20;;;15.10;91.20;;;;;;5075139;28;20027;-81
2022/03/28 10:55:46;;;;;;;17.60;9.32;;;15.10;94.30;;;;;;5075341;28;20613;-81
2022/03/28 10:58:17;;;;;;;14.98;9.23;;;15.10;93.40;;;;;;5093370;28;20024;-81
2022/03/28 11:01:07;;;;;;;16.35;8.55;;;15.20;92.90;;;;;;5074646;28;20031;-80
2022/03/28 11:03:45;;;;;;;12.18;7.93;;;15.20;95.70;;;;;;5075267;28;20028;-80
2022/03/28 11:06:16;;;;;;;15.20;8.43;;;15.20;94.70;;;;;;5075211;28;20119;-80
2022/03/28 11:08:45;;;;;;;16.70;8.50;;;15.20;94.10;;;;;;5093607;28;20021;-81
2022/03/28 11:11:22;;;;;;;15.57;9.07;;;15.20;93.50;;;;;;5093217;28;20032;-81
2022/03/28 11:13:59;;;;;;;14.85;8.38;;;15.20;92.90;;;;;;5093221;28;20058;-81
2022/03/28 11:16:44;;;;;;;18.80;8.40;;;15.20;92.10;;;;;;5093121;28;20031;-81
2022/03/28 11:19:29;;;;;;;13.18;8.10;;;15.20;91.40;;;;;;5093470;28;20031;-81
2022/03/28 11:21:59;;;;;;;;;;;15.30;97.90;;;;;;5075383;28;20059;-81
2022/03/28 11:24:44;;;;;;;14.40;7.90;;;;;;;;;;5074989;28;19926;-81
2022/03/28 11:27:11;;;;;;;13.32;7.45;;;15.10;99.00;;;;;;5075104;28;20036;-81
2022/03/28 11:29:37;;;;;;;15.30;7.35;;;15.30;98.30;;;;;;5074976;28;20028;-81
2022/03/28 11:32:11;;;;;;;13.65;7.25;;;;;;;;;;5093044;28;20025;-80
2022/03/28 11:34:37;;;;;;;19.75;7.93;;;15.50;85.70;;;;;;5093058;28;20028;-81
2022/03/28 11:37:03;;;;;;;11.30;7.28;;;15.50;84.60;;;;;;5092896;28;20031;-81
2022/03/28 11:39:31;;;;;;;11.77;7.50;;;15.60;82.80;;;;;;5092774;28;20107;-81
2022/03/28 11:41:58;;;;;;;14.25;7.57;;;15.50;83.40;;;;;;5074552;28;20016;-81
2022/03/28 11:44:27;;;;;;;11.30;7.72;;;15.50;82.80;;;;;;5074584;28;20020;-81
2022/03/28 11:46:57;;;;;;;12.82;7.45;;;15.50;82.70;;;;;;5074510;28;20020;-81
2022/03/28 11:49:23;;;;;;;10.48;7.20;;;15.60;83.30;;;;;;5074564;28;20048;-81
2022/03/28 11:51:49;;;;;;;12.90;7.28;;;15.50;82.80;;;;;;5092669;28;20024;-80
2022/03/28 11:54:18;;;;;;;10.95;6.65;;;15.50;83.50;;;;;;5074493;28;20409;-81
2022/03/28 11:59:31;;;;;;;13.30;6.72;;;15.60;84.40;;;;;;5092906;28;20555;-81
2022/03/28 12:02:02;;;;;;;14.38;6.80;;;15.60;85.10;;;;;;5074438;28;20085;-81
2022/03/28 12:04:28;;;;;;;14.40;6.30;;;15.60;85.70;;;;;;5092594;28;20032;-81
2022/03/28 12:06:54;;;;;;;12.00;7.55;;;15.60;78.50;;;;;;5074438;28;20482;-81
2022/03/28 12:09:20;;;;;;;13.55;7.05;;;15.60;79.10;;;;;;5074598;28;20067;-81
2022/03/28 12:11:49;;;;;;;15.15;7.53;;;15.60;79.80;;;;;;5074380;28;20028;-81
2022/03/28 12:14:15;;;;;;;13.90;7.68;;;15.60;80.40;;;;;;5095904;28;20447;-81
2022/03/28 12:16:54;;;;;;;12.68;7.20;;;15.50;79.40;;;;;;5096186;28;20030;-81
2022/03/28 12:19:22;;;;;;;12.20;7.10;;;15.50;79.50;;;;;;5077712;28;20028;-81
2022/03/28 12:21:49;;;;;;;12.95;7.65;;;15.60;79.70;;;;;;5095753;28;20056;-81
2022/03/28 12:24:15;;;;;;;13.30;7.65;;;15.60;80.00;;;;;;5078504;28;20379;-81
2022/03/28 12:26:45;;;;;;;11.20;7.20;;;15.70;80.00;;;;;;5095792;28;20031;-80
2022/03/28 12:29:11;;;;;;;14.27;8.07;;;15.70;80.10;;;;;;5095743;28;20430;-80
2022/03/28 12:31:41;;;;;;;13.52;7.50;;;15.80;84.00;;;;;;5077605;28;20031;-80
2022/03/28 12:34:07;;;;;;;12.13;7.65;;;15.90;82.80;;;;;;5095634;28;20032;-80
2022/03/28 12:36:35;;;;;;;16.38;7.90;;;15.80;80.30;;;;;;5095570;28;20053;-80
2022/03/28 12:39:06;;;;;;;12.40;7.95;;;15.80;80.30;;;;;;5077377;28;20019;-80
2022/03/28 12:41:40;;;;;;;11.40;6.93;;;15.90;80.30;;;;;;5095779;28;20029;-80
2022/03/28 12:44:11;;;;;;;;;;;15.90;80.20;;;;;;5077733;28;20364;-80
2022/03/28 12:46:37;;;;;;;15.45;7.20;;;16.00;80.10;;;;;;5095931;28;19904;-80
2022/03/28 12:49:08;;;;;;;12.95;7.60;;;16.10;80.10;;;;;;5077256;28;20032;-80
2022/03/28 12:51:34;;;;;;;12.35;7.20;;;16.10;80.00;;;;;;5077120;28;20479;-80